sensor_id;sensor_type;location;lat;lon;timestamp;P1;durP1;ratioP1;P2;durP2;ratioP2
70467;SDS011;57934;51.532;7.684;2023-01-01T00:02:17;11.05;;;5.75;;
70467;SDS011;57934;51.532;7.684;2023-01-01T00:04:42;17.52;;;5.63;;
70467;SDS011;57934;51.532;7.684;2023-01-01T00:07:08;13.23;;;4.93;;
70467;SDS011;57934;51.532;7.684;2023-01-01T00:09:34;6.95;;;4.70;;
70467;SDS011;57934;51.532;7.684;2023-01-01T00:12:19;10.68;;;5.05;;
70467;SDS011;57934;51.532;7.684;2023-01-01T00:14:45;10.88;;;4.47;;
70467;SDS011;57934;51.532;7.684;2023-01-01T00:17:11;14.40;;;4.57;;
70467;SDS011;57934;51.532;7.684;2023-01-01T00:19:37;9.50;;;4.43;;
70467;SDS011;57934;51.532;7.684;2023-01-01T00:22:03;9.93;;;5.00;;
70467;SDS011;57934;51.532;7.684;2023-01-01T00:24:29;9.20;;;4.50;;
70467;SDS011;57934;51.532;7.684;2023-01-01T00:26:55;9.80;;;4.00;;
70467;SDS011;57934;51.532;7.684;2023-01-01T00:29:21;14.50;;;4.85;;
70467;SDS011;57934;51.532;7.684;2023-01-01T00:31:47;8.35;;;3.97;;
70467;SDS011;57934;51.532;7.684;2023-01-01T00:34:13;7.82;;;4.25;;
70467;SDS011;57934;51.532;7.684;2023-01-01T00:36:39;12.02;;;4.63;;
70467;SDS011;57934;51.532;7.684;2023-01-01T00:39:05;11.40;;;4.57;;
70467;SDS011;57934;51.532;7.684;2023-01-01T00:41:31;9.75;;;4.78;;
70467;SDS011;57934;51.532;7.684;2023-01-01T00:43:57;9.95;;;4.43;;
70467;SDS011;57934;51.532;7.684;2023-01-01T00:46:23;12.45;;;4.55;;
70467;SDS011;57934;51.532;7.684;2023-01-01T00:48:49;9.85;;;4.32;;
70467;SDS011;57934;51.532;7.684;2023-01-01T00:51:15;15.25;;;4.65;;
70467;SDS011;57934;51.532;7.684;2023-01-01T00:53:41;11.32;;;4.55;;
70467;SDS011;57934;51.532;7.684;2023-01-01T00:56:07;8.40;;;4.70;;
70467;SDS011;57934;51.532;7.684;2023-01-01T00:58:33;10.73;;;4.30;;
70467;SDS011;57934;51.532;7.684;2023-01-01T01:00:59;9.05;;;5.25;;
70467;SDS011;57934;51.532;7.684;2023-01-01T01:03:25;12.48;;;4.97;;
70467;SDS011;57934;51.532;7.684;2023-01-01T01:08:34;10.98;;;4.40;;
70467;SDS011;57934;51.532;7.684;2023-01-01T01:13:29;9.88;;;4.97;;
70467;SDS011;57934;51.532;7.684;2023-01-01T01:15:55;9.93;;;4.57;;
70467;SDS011;57934;51.532;7.684;2023-01-01T01:18:21;14.90;;;5.20;;
70467;SDS011;57934;51.532;7.684;2023-01-01T01:20:48;9.10;;;4.47;;
70467;SDS011;57934;51.532;7.684;2023-01-01T01:23:16;14.35;;;5.30;;
70467;SDS011;57934;51.532;7.684;2023-01-01T01:25:42;13.65;;;5.07;;
70467;SDS011;57934;51.532;7.684;2023-01-01T01:28:09;12.70;;;5.10;;
70467;SDS011;57934;51.532;7.684;2023-01-01T01:30:38;9.98;;;4.78;;
70467;SDS011;57934;51.532;7.684;2023-01-01T01:33:06;11.52;;;4.93;;
70467;SDS011;57934;51.532;7.684;2023-01-01T01:35:32;10.75;;;5.25;;
70467;SDS011;57934;51.532;7.684;2023-01-01T01:37:58;9.00;;;4.57;;
70467;SDS011;57934;51.532;7.684;2023-01-01T01:40:24;9.90;;;5.72;;
70467;SDS011;57934;51.532;7.684;2023-01-01T01:42:50;6.95;;;4.80;;
70467;SDS011;57934;51.532;7.684;2023-01-01T01:45:17;10.70;;;4.72;;
70467;SDS011;57934;51.532;7.684;2023-01-01T01:47:48;12.15;;;6.10;;
70467;SDS011;57934;51.532;7.684;2023-01-01T01:52:58;7.97;;;4.57;;
70467;SDS011;57934;51.532;7.684;2023-01-01T01:55:37;7.35;;;3.80;;
70467;SDS011;57934;51.532;7.684;2023-01-01T01:58:08;7.53;;;4.00;;
70467;SDS011;57934;51.532;7.684;2023-01-01T02:00:37;6.07;;;3.80;;
70467;SDS011;57934;51.532;7.684;2023-01-01T02:03:07;6.95;;;4.00;;
70467;SDS011;57934;51.532;7.684;2023-01-01T02:05:56;10.02;;;3.63;;
70467;SDS011;57934;51.532;7.684;2023-01-01T02:08:23;7.50;;;3.67;;
70467;SDS011;57934;51.532;7.684;2023-01-01T02:10:50;5.60;;;2.92;;
70467;SDS011;57934;51.532;7.684;2023-01-01T02:13:16;7.65;;;4.07;;
70467;SDS011;57934;51.532;7.684;2023-01-01T02:18:43;3.15;;;2.30;;
70467;SDS011;57934;51.532;7.684;2023-01-01T02:21:19;6.53;;;3.20;;
70467;SDS011;57934;51.532;7.684;2023-01-01T02:23:53;7.57;;;2.83;;
70467;SDS011;57934;51.532;7.684;2023-01-01T02:31:55;5.95;;;2.20;;
70467;SDS011;57934;51.532;7.684;2023-01-01T02:34:30;3.53;;;1.92;;
70467;SDS011;57934;51.532;7.684;2023-01-01T02:37:01;5.53;;;2.70;;
70467;SDS011;57934;51.532;7.684;2023-01-01T02:39:30;4.63;;;2.30;;
70467;SDS011;57934;51.532;7.684;2023-01-01T02:41:59;5.32;;;2.45;;
70467;SDS011;57934;51.532;7.684;2023-01-01T02:44:28;4.95;;;1.83;;
70467;SDS011;57934;51.532;7.684;2023-01-01T02:47:05;4.32;;;1.92;;
70467;SDS011;57934;51.532;7.684;2023-01-01T02:49:34;2.83;;;1.70;;
70467;SDS011;57934;51.532;7.684;2023-01-01T02:52:05;4.65;;;1.95;;
70467;SDS011;57934;51.532;7.684;2023-01-01T02:54:52;3.95;;;1.60;;
70467;SDS011;57934;51.532;7.684;2023-01-01T02:57:31;3.55;;;1.83;;
70467;SDS011;57934;51.532;7.684;2023-01-01T03:00:12;3.70;;;1.75;;
70467;SDS011;57934;51.532;7.684;2023-01-01T03:05:59;5.35;;;2.30;;
70467;SDS011;57934;51.532;7.684;2023-01-01T03:11:55;6.53;;;1.42;;
70467;SDS011;57934;51.532;7.684;2023-01-01T03:14:43;7.75;;;1.80;;
70467;SDS011;57934;51.532;7.684;2023-01-01T03:17:20;5.00;;;1.52;;
70467;SDS011;57934;51.532;7.684;2023-01-01T03:19:51;4.68;;;1.83;;
70467;SDS011;57934;51.532;7.684;2023-01-01T03:22:21;4.90;;;1.50;;
70467;SDS011;57934;51.532;7.684;2023-01-01T03:24:55;4.95;;;1.63;;
70467;SDS011;57934;51.532;7.684;2023-01-01T03:27:29;4.80;;;1.60;;
70467;SDS011;57934;51.532;7.684;2023-01-01T03:30:01;3.35;;;1.35;;
70467;SDS011;57934;51.532;7.684;2023-01-01T03:32:37;3.15;;;1.52;;
70467;SDS011;57934;51.532;7.684;2023-01-01T03:35:31;4.05;;;1.63;;
70467;SDS011;57934;51.532;7.684;2023-01-01T03:38:15;5.18;;;1.67;;
70467;SDS011;57934;51.532;7.684;2023-01-01T03:40:46;2.58;;;1.35;;
70467;SDS011;57934;51.532;7.684;2023-01-01T03:43:20;5.65;;;1.40;;
70467;SDS011;57934;51.532;7.684;2023-01-01T03:46:09;4.38;;;1.40;;
70467;SDS011;57934;51.532;7.684;2023-01-01T03:48:39;5.97;;;1.58;;
70467;SDS011;57934;51.532;7.684;2023-01-01T03:54:14;6.97;;;1.52;;
70467;SDS011;57934;51.532;7.684;2023-01-01T03:56:44;8.98;;;1.80;;
70467;SDS011;57934;51.532;7.684;2023-01-01T03:59:20;3.10;;;1.30;;
70467;SDS011;57934;51.532;7.684;2023-01-01T04:01:52;2.35;;;1.40;;
70467;SDS011;57934;51.532;7.684;2023-01-01T04:04:23;2.58;;;1.40;;
70467;SDS011;57934;51.532;7.684;2023-01-01T04:06:51;3.88;;;1.30;;
70467;SDS011;57934;51.532;7.684;2023-01-01T04:09:19;4.22;;;1.98;;
70467;SDS011;57934;51.532;7.684;2023-01-01T04:11:50;5.03;;;1.42;;
70467;SDS011;57934;51.532;7.684;2023-01-01T04:17:03;5.78;;;1.60;;
70467;SDS011;57934;51.532;7.684;2023-01-01T04:19:30;5.95;;;1.20;;
70467;SDS011;57934;51.532;7.684;2023-01-01T04:21:56;4.95;;;1.38;;
70467;SDS011;57934;51.532;7.684;2023-01-01T04:24:23;2.97;;;1.33;;
70467;SDS011;57934;51.532;7.684;2023-01-01T04:26:49;4.25;;;1.33;;
70467;SDS011;57934;51.532;7.684;2023-01-01T04:29:16;3.83;;;1.52;;
70467;SDS011;57934;51.532;7.684;2023-01-01T04:31:43;3.63;;;1.20;;
70467;SDS011;57934;51.532;7.684;2023-01-01T04:34:09;7.07;;;1.40;;
70467;SDS011;57934;51.532;7.684;2023-01-01T04:36:35;5.18;;;1.50;;
70467;SDS011;57934;51.532;7.684;2023-01-01T04:39:02;5.55;;;1.40;;
70467;SDS011;57934;51.532;7.684;2023-01-01T04:41:28;6.13;;;1.83;;
70467;SDS011;57934;51.532;7.684;2023-01-01T04:43:54;3.53;;;1.80;;
70467;SDS011;57934;51.532;7.684;2023-01-01T04:46:20;3.17;;;1.38;;
70467;SDS011;57934;51.532;7.684;2023-01-01T04:48:47;3.47;;;1.20;;
70467;SDS011;57934;51.532;7.684;2023-01-01T04:51:14;6.28;;;1.30;;
70467;SDS011;57934;51.532;7.684;2023-01-01T04:53:42;8.00;;;1.50;;
70467;SDS011;57934;51.532;7.684;2023-01-01T04:58:51;8.30;;;1.35;;
70467;SDS011;57934;51.532;7.684;2023-01-01T05:01:19;7.03;;;2.13;;
70467;SDS011;57934;51.532;7.684;2023-01-01T05:03:46;3.30;;;1.50;;
70467;SDS011;57934;51.532;7.684;2023-01-01T05:06:13;4.50;;;1.13;;
70467;SDS011;57934;51.532;7.684;2023-01-01T05:08:41;3.15;;;1.17;;
70467;SDS011;57934;51.532;7.684;2023-01-01T05:11:19;3.17;;;1.30;;
70467;SDS011;57934;51.532;7.684;2023-01-01T05:13:56;6.82;;;1.70;;
70467;SDS011;57934;51.532;7.684;2023-01-01T05:16:25;2.65;;;1.25;;
70467;SDS011;57934;51.532;7.684;2023-01-01T05:18:53;6.40;;;1.48;;
70467;SDS011;57934;51.532;7.684;2023-01-01T05:21:20;5.32;;;2.47;;
70467;SDS011;57934;51.532;7.684;2023-01-01T05:23:48;5.80;;;1.50;;
70467;SDS011;57934;51.532;7.684;2023-01-01T05:26:19;4.40;;;1.75;;
70467;SDS011;57934;51.532;7.684;2023-01-01T05:28:48;8.05;;;1.60;;
70467;SDS011;57934;51.532;7.684;2023-01-01T05:31:16;5.15;;;1.45;;
70467;SDS011;57934;51.532;7.684;2023-01-01T05:33:43;2.88;;;1.75;;
70467;SDS011;57934;51.532;7.684;2023-01-01T05:36:13;4.43;;;1.50;;
70467;SDS011;57934;51.532;7.684;2023-01-01T05:38:41;4.30;;;1.60;;
70467;SDS011;57934;51.532;7.684;2023-01-01T05:41:07;4.47;;;1.20;;
70467;SDS011;57934;51.532;7.684;2023-01-01T05:43:35;5.57;;;1.60;;
70467;SDS011;57934;51.532;7.684;2023-01-01T05:46:02;7.82;;;1.55;;
70467;SDS011;57934;51.532;7.684;2023-01-01T05:48:29;4.25;;;1.38;;
70467;SDS011;57934;51.532;7.684;2023-01-01T05:51:06;7.82;;;1.40;;
70467;SDS011;57934;51.532;7.684;2023-01-01T05:53:34;1.83;;;1.52;;
70467;SDS011;57934;51.532;7.684;2023-01-01T05:56:00;4.28;;;1.40;;
70467;SDS011;57934;51.532;7.684;2023-01-01T05:58:27;4.50;;;1.42;;
70467;SDS011;57934;51.532;7.684;2023-01-01T06:00:54;4.25;;;2.08;;
70467;SDS011;57934;51.532;7.684;2023-01-01T06:03:20;4.45;;;1.35;;
70467;SDS011;57934;51.532;7.684;2023-01-01T06:05:46;6.65;;;1.48;;
70467;SDS011;57934;51.532;7.684;2023-01-01T06:08:12;3.50;;;1.58;;
70467;SDS011;57934;51.532;7.684;2023-01-01T06:10:39;4.25;;;1.23;;
70467;SDS011;57934;51.532;7.684;2023-01-01T06:13:05;3.60;;;1.23;;
70467;SDS011;57934;51.532;7.684;2023-01-01T06:15:31;4.20;;;1.55;;
70467;SDS011;57934;51.532;7.684;2023-01-01T06:17:57;4.40;;;1.50;;
70467;SDS011;57934;51.532;7.684;2023-01-01T06:20:23;4.38;;;1.80;;
70467;SDS011;57934;51.532;7.684;2023-01-01T06:22:49;2.72;;;1.70;;
70467;SDS011;57934;51.532;7.684;2023-01-01T06:25:15;3.83;;;1.50;;
70467;SDS011;57934;51.532;7.684;2023-01-01T06:27:41;4.68;;;1.17;;
70467;SDS011;57934;51.532;7.684;2023-01-01T06:30:08;6.57;;;1.75;;
70467;SDS011;57934;51.532;7.684;2023-01-01T06:32:34;3.15;;;1.40;;
70467;SDS011;57934;51.532;7.684;2023-01-01T06:35:00;5.15;;;1.35;;
70467;SDS011;57934;51.532;7.684;2023-01-01T06:37:29;5.47;;;2.45;;
70467;SDS011;57934;51.532;7.684;2023-01-01T06:39:55;6.03;;;1.88;;
70467;SDS011;57934;51.532;7.684;2023-01-01T06:42:21;6.60;;;1.42;;
70467;SDS011;57934;51.532;7.684;2023-01-01T06:44:47;3.10;;;1.55;;
70467;SDS011;57934;51.532;7.684;2023-01-01T06:47:13;5.88;;;1.77;;
70467;SDS011;57934;51.532;7.684;2023-01-01T06:49:38;4.53;;;1.25;;
70467;SDS011;57934;51.532;7.684;2023-01-01T06:52:04;3.90;;;1.50;;
70467;SDS011;57934;51.532;7.684;2023-01-01T06:54:30;5.55;;;1.83;;
70467;SDS011;57934;51.532;7.684;2023-01-01T06:56:56;2.80;;;1.25;;
70467;SDS011;57934;51.532;7.684;2023-01-01T06:59:22;4.90;;;1.83;;
70467;SDS011;57934;51.532;7.684;2023-01-01T07:01:48;2.00;;;1.17;;
70467;SDS011;57934;51.532;7.684;2023-01-01T07:04:14;3.25;;;1.40;;
70467;SDS011;57934;51.532;7.684;2023-01-01T07:06:41;7.80;;;1.85;;
70467;SDS011;57934;51.532;7.684;2023-01-01T07:09:07;4.57;;;1.60;;
70467;SDS011;57934;51.532;7.684;2023-01-01T07:11:34;4.40;;;1.52;;
70467;SDS011;57934;51.532;7.684;2023-01-01T07:14:00;3.67;;;1.60;;
70467;SDS011;57934;51.532;7.684;2023-01-01T07:16:26;3.70;;;1.42;;
70467;SDS011;57934;51.532;7.684;2023-01-01T07:18:52;4.32;;;1.55;;
70467;SDS011;57934;51.532;7.684;2023-01-01T07:21:31;3.47;;;1.20;;
70467;SDS011;57934;51.532;7.684;2023-01-01T07:24:02;4.57;;;1.30;;
70467;SDS011;57934;51.532;7.684;2023-01-01T07:26:30;4.30;;;1.35;;
70467;SDS011;57934;51.532;7.684;2023-01-01T07:28:57;4.20;;;1.48;;
70467;SDS011;57934;51.532;7.684;2023-01-01T07:31:24;2.58;;;1.27;;
70467;SDS011;57934;51.532;7.684;2023-01-01T07:33:50;2.85;;;1.40;;
70467;SDS011;57934;51.532;7.684;2023-01-01T07:36:16;6.50;;;1.40;;
70467;SDS011;57934;51.532;7.684;2023-01-01T07:38:42;4.15;;;1.50;;
70467;SDS011;57934;51.532;7.684;2023-01-01T07:41:07;5.70;;;1.52;;
70467;SDS011;57934;51.532;7.684;2023-01-01T07:43:33;5.70;;;1.70;;
70467;SDS011;57934;51.532;7.684;2023-01-01T07:46:00;3.17;;;1.38;;
70467;SDS011;57934;51.532;7.684;2023-01-01T07:48:26;3.60;;;1.75;;
70467;SDS011;57934;51.532;7.684;2023-01-01T07:50:52;5.88;;;2.25;;
70467;SDS011;57934;51.532;7.684;2023-01-01T07:53:18;7.28;;;1.90;;
70467;SDS011;57934;51.532;7.684;2023-01-01T07:55:44;3.58;;;1.63;;
70467;SDS011;57934;51.532;7.684;2023-01-01T07:58:11;5.55;;;1.60;;
70467;SDS011;57934;51.532;7.684;2023-01-01T08:00:37;4.75;;;1.50;;
70467;SDS011;57934;51.532;7.684;2023-01-01T08:03:03;7.50;;;1.60;;
70467;SDS011;57934;51.532;7.684;2023-01-01T08:05:30;8.77;;;1.95;;
70467;SDS011;57934;51.532;7.684;2023-01-01T08:07:57;6.95;;;2.13;;
70467;SDS011;57934;51.532;7.684;2023-01-01T08:10:23;4.82;;;1.52;;
70467;SDS011;57934;51.532;7.684;2023-01-01T08:12:49;6.60;;;1.73;;
70467;SDS011;57934;51.532;7.684;2023-01-01T08:15:15;7.53;;;1.48;;
70467;SDS011;57934;51.532;7.684;2023-01-01T08:17:42;4.65;;;1.65;;
70467;SDS011;57934;51.532;7.684;2023-01-01T08:20:08;2.58;;;1.52;;
70467;SDS011;57934;51.532;7.684;2023-01-01T08:22:35;3.33;;;1.45;;
70467;SDS011;57934;51.532;7.684;2023-01-01T08:25:01;2.60;;;1.50;;
70467;SDS011;57934;51.532;7.684;2023-01-01T08:27:27;6.40;;;1.60;;
70467;SDS011;57934;51.532;7.684;2023-01-01T08:29:53;5.07;;;2.35;;
70467;SDS011;57934;51.532;7.684;2023-01-01T08:32:19;4.07;;;1.92;;
70467;SDS011;57934;51.532;7.684;2023-01-01T08:34:45;8.23;;;1.60;;
70467;SDS011;57934;51.532;7.684;2023-01-01T08:37:12;5.53;;;2.00;;
70467;SDS011;57934;51.532;7.684;2023-01-01T08:39:38;6.93;;;1.98;;
70467;SDS011;57934;51.532;7.684;2023-01-01T08:42:05;6.30;;;1.75;;
70467;SDS011;57934;51.532;7.684;2023-01-01T08:44:31;8.80;;;1.73;;
70467;SDS011;57934;51.532;7.684;2023-01-01T08:46:57;8.45;;;2.08;;
70467;SDS011;57934;51.532;7.684;2023-01-01T08:49:23;4.07;;;1.60;;
70467;SDS011;57934;51.532;7.684;2023-01-01T08:51:49;7.30;;;2.22;;
70467;SDS011;57934;51.532;7.684;2023-01-01T08:54:15;4.60;;;1.50;;
70467;SDS011;57934;51.532;7.684;2023-01-01T08:56:41;3.67;;;1.75;;
70467;SDS011;57934;51.532;7.684;2023-01-01T08:59:07;7.47;;;2.00;;
70467;SDS011;57934;51.532;7.684;2023-01-01T09:01:33;6.07;;;1.90;;
70467;SDS011;57934;51.532;7.684;2023-01-01T09:03:59;3.13;;;1.55;;
70467;SDS011;57934;51.532;7.684;2023-01-01T09:06:25;5.10;;;1.70;;
70467;SDS011;57934;51.532;7.684;2023-01-01T09:08:51;6.43;;;2.25;;
70467;SDS011;57934;51.532;7.684;2023-01-01T09:11:22;7.15;;;1.65;;
70467;SDS011;57934;51.532;7.684;2023-01-01T09:13:50;5.18;;;1.38;;
70467;SDS011;57934;51.532;7.684;2023-01-01T09:16:17;6.85;;;1.80;;
70467;SDS011;57934;51.532;7.684;2023-01-01T09:18:43;7.13;;;1.40;;
70467;SDS011;57934;51.532;7.684;2023-01-01T09:21:09;5.13;;;1.80;;
70467;SDS011;57934;51.532;7.684;2023-01-01T09:23:36;8.05;;;1.95;;
70467;SDS011;57934;51.532;7.684;2023-01-01T09:26:02;7.00;;;1.55;;
70467;SDS011;57934;51.532;7.684;2023-01-01T09:28:29;8.50;;;1.67;;
70467;SDS011;57934;51.532;7.684;2023-01-01T09:30:55;9.05;;;1.90;;
70467;SDS011;57934;51.532;7.684;2023-01-01T09:33:21;4.25;;;1.83;;
70467;SDS011;57934;51.532;7.684;2023-01-01T09:35:47;4.93;;;1.77;;
70467;SDS011;57934;51.532;7.684;2023-01-01T09:38:13;5.85;;;1.63;;
70467;SDS011;57934;51.532;7.684;2023-01-01T09:40:57;5.20;;;1.80;;
70467;SDS011;57934;51.532;7.684;2023-01-01T09:46:07;4.40;;;1.65;;
70467;SDS011;57934;51.532;7.684;2023-01-01T09:48:40;4.78;;;1.70;;
70467;SDS011;57934;51.532;7.684;2023-01-01T09:51:16;10.63;;;2.63;;
70467;SDS011;57934;51.532;7.684;2023-01-01T09:53:47;5.32;;;1.88;;
70467;SDS011;57934;51.532;7.684;2023-01-01T09:56:18;4.35;;;1.70;;
70467;SDS011;57934;51.532;7.684;2023-01-01T09:58:49;4.95;;;1.60;;
70467;SDS011;57934;51.532;7.684;2023-01-01T10:01:17;6.78;;;2.42;;
70467;SDS011;57934;51.532;7.684;2023-01-01T10:04:01;3.47;;;1.60;;
70467;SDS011;57934;51.532;7.684;2023-01-01T10:09:47;8.07;;;2.00;;
70467;SDS011;57934;51.532;7.684;2023-01-01T10:12:34;5.10;;;1.63;;
70467;SDS011;57934;51.532;7.684;2023-01-01T10:15:11;8.00;;;2.00;;
70467;SDS011;57934;51.532;7.684;2023-01-01T10:17:44;5.45;;;1.63;;
70467;SDS011;57934;51.532;7.684;2023-01-01T10:20:20;4.90;;;1.50;;
70467;SDS011;57934;51.532;7.684;2023-01-01T10:22:51;5.07;;;1.80;;
70467;SDS011;57934;51.532;7.684;2023-01-01T10:25:21;3.90;;;1.40;;
70467;SDS011;57934;51.532;7.684;2023-01-01T10:30:30;8.30;;;2.20;;
70467;SDS011;57934;51.532;7.684;2023-01-01T10:32:56;3.95;;;1.50;;
70467;SDS011;57934;51.532;7.684;2023-01-01T10:35:24;6.93;;;1.70;;
70467;SDS011;57934;51.532;7.684;2023-01-01T10:38:00;4.78;;;1.90;;
70467;SDS011;57934;51.532;7.684;2023-01-01T10:40:28;4.93;;;1.83;;
70467;SDS011;57934;51.532;7.684;2023-01-01T10:42:56;6.50;;;1.73;;
70467;SDS011;57934;51.532;7.684;2023-01-01T10:45:36;3.97;;;1.63;;
70467;SDS011;57934;51.532;7.684;2023-01-01T10:48:13;7.45;;;1.92;;
70467;SDS011;57934;51.532;7.684;2023-01-01T10:53:41;3.55;;;1.17;;
70467;SDS011;57934;51.532;7.684;2023-01-01T10:56:23;5.55;;;1.63;;
70467;SDS011;57934;51.532;7.684;2023-01-01T11:01:24;5.35;;;1.67;;
70467;SDS011;57934;51.532;7.684;2023-01-01T11:03:59;6.95;;;1.40;;
70467;SDS011;57934;51.532;7.684;2023-01-01T11:09:02;6.72;;;1.83;;
70467;SDS011;57934;51.532;7.684;2023-01-01T11:11:30;6.43;;;1.80;;
70467;SDS011;57934;51.532;7.684;2023-01-01T11:14:02;6.65;;;2.25;;
70467;SDS011;57934;51.532;7.684;2023-01-01T11:16:33;7.78;;;2.35;;
70467;SDS011;57934;51.532;7.684;2023-01-01T11:19:05;6.32;;;1.98;;
70467;SDS011;57934;51.532;7.684;2023-01-01T11:21:33;3.33;;;1.90;;
70467;SDS011;57934;51.532;7.684;2023-01-01T11:24:16;6.43;;;1.65;;
70467;SDS011;57934;51.532;7.684;2023-01-01T11:26:50;3.75;;;1.40;;
70467;SDS011;57934;51.532;7.684;2023-01-01T11:29:18;6.75;;;2.05;;
70467;SDS011;57934;51.532;7.684;2023-01-01T11:31:45;6.32;;;1.70;;
70467;SDS011;57934;51.532;7.684;2023-01-01T11:34:58;5.25;;;2.10;;
70467;SDS011;57934;51.532;7.684;2023-01-01T11:39:43;5.45;;;2.00;;
70467;SDS011;57934;51.532;7.684;2023-01-01T11:42:18;3.92;;;1.85;;
70467;SDS011;57934;51.532;7.684;2023-01-01T11:44:48;3.20;;;1.25;;
70467;SDS011;57934;51.532;7.684;2023-01-01T11:50:23;6.07;;;1.60;;
70467;SDS011;57934;51.532;7.684;2023-01-01T11:52:49;5.90;;;1.60;;
70467;SDS011;57934;51.532;7.684;2023-01-01T12:00:56;7.95;;;1.83;;
70467;SDS011;57934;51.532;7.684;2023-01-01T12:05:57;4.78;;;1.70;;
70467;SDS011;57934;51.532;7.684;2023-01-01T12:14:16;4.57;;;1.50;;
70467;SDS011;57934;51.532;7.684;2023-01-01T12:17:00;3.97;;;1.50;;
70467;SDS011;57934;51.532;7.684;2023-01-01T12:22:21;5.45;;;2.50;;
70467;SDS011;57934;51.532;7.684;2023-01-01T12:24:48;6.25;;;1.70;;
70467;SDS011;57934;51.532;7.684;2023-01-01T12:27:17;11.15;;;1.83;;
70467;SDS011;57934;51.532;7.684;2023-01-01T12:30:05;5.60;;;2.05;;
70467;SDS011;57934;51.532;7.684;2023-01-01T12:32:51;4.33;;;1.53;;
70467;SDS011;57934;51.532;7.684;2023-01-01T12:41:07;5.05;;;1.85;;
70467;SDS011;57934;51.532;7.684;2023-01-01T12:44:05;7.05;;;2.08;;
70467;SDS011;57934;51.532;7.684;2023-01-01T12:49:19;5.63;;;1.77;;
70467;SDS011;57934;51.532;7.684;2023-01-01T12:57:28;7.10;;;1.85;;
70467;SDS011;57934;51.532;7.684;2023-01-01T12:59:58;7.57;;;2.25;;
70467;SDS011;57934;51.532;7.684;2023-01-01T13:02:27;7.68;;;1.80;;
70467;SDS011;57934;51.532;7.684;2023-01-01T13:05:00;9.20;;;2.95;;
70467;SDS011;57934;51.532;7.684;2023-01-01T13:07:34;9.48;;;2.40;;
70467;SDS011;57934;51.532;7.684;2023-01-01T13:13:03;6.03;;;2.40;;
70467;SDS011;57934;51.532;7.684;2023-01-01T13:18:15;6.57;;;1.55;;
70467;SDS011;57934;51.532;7.684;2023-01-01T13:20:55;6.95;;;1.58;;
70467;SDS011;57934;51.532;7.684;2023-01-01T13:26:42;9.75;;;2.53;;
70467;SDS011;57934;51.532;7.684;2023-01-01T13:45:41;4.07;;;1.75;;
70467;SDS011;57934;51.532;7.684;2023-01-01T14:13:12;6.90;;;1.45;;
70467;SDS011;57934;51.532;7.684;2023-01-01T14:15:49;7.03;;;1.70;;
70467;SDS011;57934;51.532;7.684;2023-01-01T14:18:18;6.88;;;1.77;;
70467;SDS011;57934;51.532;7.684;2023-01-01T14:20:49;9.23;;;2.00;;
70467;SDS011;57934;51.532;7.684;2023-01-01T14:23:35;7.95;;;2.28;;
70467;SDS011;57934;51.532;7.684;2023-01-01T14:26:23;3.13;;;1.60;;
70467;SDS011;57934;51.532;7.684;2023-01-01T14:28:55;8.40;;;1.80;;
70467;SDS011;57934;51.532;7.684;2023-01-01T14:31:23;6.32;;;1.90;;
70467;SDS011;57934;51.532;7.684;2023-01-01T14:33:58;5.47;;;1.85;;
70467;SDS011;57934;51.532;7.684;2023-01-01T14:36:27;5.53;;;1.88;;
70467;SDS011;57934;51.532;7.684;2023-01-01T14:38:56;8.02;;;2.33;;
70467;SDS011;57934;51.532;7.684;2023-01-01T14:41:35;5.75;;;1.75;;
70467;SDS011;57934;51.532;7.684;2023-01-01T14:44:13;8.38;;;2.05;;
70467;SDS011;57934;51.532;7.684;2023-01-01T14:46:42;5.72;;;1.92;;
70467;SDS011;57934;51.532;7.684;2023-01-01T14:49:15;6.97;;;1.90;;
70467;SDS011;57934;51.532;7.684;2023-01-01T14:51:45;6.65;;;1.88;;
70467;SDS011;57934;51.532;7.684;2023-01-01T14:54:18;8.55;;;2.17;;
70467;SDS011;57934;51.532;7.684;2023-01-01T14:56:50;6.88;;;2.17;;
70467;SDS011;57934;51.532;7.684;2023-01-01T15:04:38;4.57;;;1.95;;
70467;SDS011;57934;51.532;7.684;2023-01-01T15:07:05;7.32;;;2.30;;
70467;SDS011;57934;51.532;7.684;2023-01-01T15:09:31;5.90;;;2.05;;
70467;SDS011;57934;51.532;7.684;2023-01-01T15:11:58;6.78;;;2.17;;
70467;SDS011;57934;51.532;7.684;2023-01-01T15:19:34;9.77;;;2.67;;
70467;SDS011;57934;51.532;7.684;2023-01-01T15:22:08;7.20;;;2.22;;
70467;SDS011;57934;51.532;7.684;2023-01-01T15:27:03;8.23;;;2.45;;
70467;SDS011;57934;51.532;7.684;2023-01-01T15:29:38;6.05;;;2.33;;
70467;SDS011;57934;51.532;7.684;2023-01-01T15:32:06;7.18;;;2.30;;
70467;SDS011;57934;51.532;7.684;2023-01-01T15:34:36;7.70;;;2.38;;
70467;SDS011;57934;51.532;7.684;2023-01-01T15:37:20;7.25;;;2.00;;
70467;SDS011;57934;51.532;7.684;2023-01-01T15:39:52;5.22;;;2.13;;
70467;SDS011;57934;51.532;7.684;2023-01-01T15:42:22;8.15;;;2.00;;
70467;SDS011;57934;51.532;7.684;2023-01-01T15:44:55;5.97;;;1.90;;
70467;SDS011;57934;51.532;7.684;2023-01-01T15:47:21;7.18;;;2.20;;
70467;SDS011;57934;51.532;7.684;2023-01-01T15:50:09;8.45;;;2.30;;
70467;SDS011;57934;51.532;7.684;2023-01-01T15:52:43;4.63;;;1.90;;
70467;SDS011;57934;51.532;7.684;2023-01-01T15:55:13;5.45;;;1.80;;
70467;SDS011;57934;51.532;7.684;2023-01-01T15:57:44;3.97;;;1.90;;
70467;SDS011;57934;51.532;7.684;2023-01-01T16:00:22;5.72;;;1.60;;
70467;SDS011;57934;51.532;7.684;2023-01-01T16:02:50;6.65;;;1.70;;
70467;SDS011;57934;51.532;7.684;2023-01-01T16:05:20;5.68;;;1.83;;
70467;SDS011;57934;51.532;7.684;2023-01-01T16:07:57;4.90;;;1.60;;
70467;SDS011;57934;51.532;7.684;2023-01-01T16:10:24;6.47;;;2.00;;
70467;SDS011;57934;51.532;7.684;2023-01-01T16:12:50;5.90;;;1.60;;
70467;SDS011;57934;51.532;7.684;2023-01-01T16:15:16;7.47;;;1.90;;
70467;SDS011;57934;51.532;7.684;2023-01-01T16:17:42;3.50;;;1.95;;
70467;SDS011;57934;51.532;7.684;2023-01-01T16:20:15;5.15;;;1.75;;
70467;SDS011;57934;51.532;7.684;2023-01-01T16:22:43;7.13;;;1.70;;
70467;SDS011;57934;51.532;7.684;2023-01-01T16:25:14;7.70;;;1.98;;
70467;SDS011;57934;51.532;7.684;2023-01-01T16:27:41;3.78;;;1.35;;
70467;SDS011;57934;51.532;7.684;2023-01-01T16:30:08;4.03;;;1.73;;
70467;SDS011;57934;51.532;7.684;2023-01-01T16:32:35;5.15;;;1.70;;
70467;SDS011;57934;51.532;7.684;2023-01-01T16:35:01;9.40;;;1.67;;
70467;SDS011;57934;51.532;7.684;2023-01-01T16:37:27;5.15;;;1.70;;
70467;SDS011;57934;51.532;7.684;2023-01-01T16:39:53;5.47;;;1.73;;
70467;SDS011;57934;51.532;7.684;2023-01-01T16:42:19;6.82;;;2.38;;
70467;SDS011;57934;51.532;7.684;2023-01-01T16:44:45;4.78;;;1.73;;
70467;SDS011;57934;51.532;7.684;2023-01-01T16:47:11;2.33;;;1.10;;
70467;SDS011;57934;51.532;7.684;2023-01-01T16:49:37;3.20;;;1.80;;
70467;SDS011;57934;51.532;7.684;2023-01-01T16:52:03;5.32;;;2.25;;
70467;SDS011;57934;51.532;7.684;2023-01-01T16:54:29;9.32;;;2.00;;
70467;SDS011;57934;51.532;7.684;2023-01-01T16:56:55;5.45;;;1.92;;
70467;SDS011;57934;51.532;7.684;2023-01-01T16:59:23;2.95;;;1.48;;
70467;SDS011;57934;51.532;7.684;2023-01-01T17:01:49;3.45;;;1.60;;
70467;SDS011;57934;51.532;7.684;2023-01-01T17:04:15;3.08;;;1.75;;
70467;SDS011;57934;51.532;7.684;2023-01-01T17:06:41;3.88;;;1.60;;
70467;SDS011;57934;51.532;7.684;2023-01-01T17:09:07;5.38;;;2.35;;
70467;SDS011;57934;51.532;7.684;2023-01-01T17:11:33;4.75;;;2.17;;
70467;SDS011;57934;51.532;7.684;2023-01-01T17:13:59;4.00;;;2.05;;
70467;SDS011;57934;51.532;7.684;2023-01-01T17:16:27;9.18;;;2.08;;
70467;SDS011;57934;51.532;7.684;2023-01-01T17:18:53;9.30;;;1.90;;
70467;SDS011;57934;51.532;7.684;2023-01-01T17:21:21;7.55;;;2.20;;
70467;SDS011;57934;51.532;7.684;2023-01-01T17:23:47;6.28;;;1.95;;
70467;SDS011;57934;51.532;7.684;2023-01-01T17:26:14;5.70;;;2.53;;
70467;SDS011;57934;51.532;7.684;2023-01-01T17:28:42;9.57;;;2.45;;